Time;durP1;ratioP1;P1;durP2;ratioP2;P2;SDS_P1;SDS_P2;PMS_P1;PMS_P2;Temp;Humidity;BMP_temperature;BMP_pressure;BME280_temperature;BME280_humidity;BME280_pressure;Samples;Min_cycle;Max_cycle;Signal;HPM_P1;HPM_P2
2022/10/12 00:01:28;;;;;;;6.07;4.13;;;;;;;;;;5117342;28;20023;-85
2022/10/12 00:03:54;;;;;;;5.63;3.63;;;;;;;;;;5098485;28;20055;-86
2022/10/12 00:06:22;;;;;;;6.07;3.42;;;;;;;;;;5116641;28;20021;-85
2022/10/12 00:08:49;;;;;;;7.38;5.13;;;;;;;;;;5098069;28;20084;-85
2022/10/12 00:11:20;;;;;;;4.82;2.88;;;;;;;;;;5114176;28;20027;-85
2022/10/12 00:13:46;;;;;;;3.92;3.20;;;;;;;;;;5116532;28;20424;-85
2022/10/12 00:16:12;;;;;;;5.93;3.20;;;;;;;;;;5112616;28;20047;-84
2022/10/12 00:18:38;;;;;;;6.30;3.25;;;;;;;;;;5116576;28;20027;-85
2022/10/12 00:21:12;;;;;;;4.75;2.80;;;;;;;;;;5115264;28;20058;-85
2022/10/12 00:23:39;;;;;;;9.43;2.97;;;;;;;;;;5096624;28;20826;-85
2022/10/12 00:26:07;;;;;;;5.13;3.38;;;;;;;;;;5115110;28;20046;-85
2022/10/12 00:28:33;;;;;;;5.07;3.75;;;;;;;;;;5113072;28;20076;-85
2022/10/12 00:30:59;;;;;;;5.10;3.60;;;;;;;;;;5110131;28;20042;-85
2022/10/12 00:33:29;;;;;;;5.97;3.03;;;;;;;;;;5093766;28;20032;-86
2022/10/12 00:35:55;;;;;;;5.85;3.20;;;;;;;;;;5114759;28;20036;-84
2022/10/12 00:38:21;;;;;;;12.95;3.40;;;;;;;;;;5111278;28;20111;-85
2022/10/12 00:40:47;;;;;;;6.05;3.53;;;;;;;;;;5091110;28;20030;-85
2022/10/12 00:43:48;;;;;;;8.82;4.80;;;;;;;;;;5113761;28;20028;-85
2022/10/12 00:46:19;;;;;;;9.30;5.38;;;;;;;;;;5035574;28;20512;-85
2022/10/12 00:48:48;;;;;;;6.18;4.68;;;;;;;;;;5085683;28;20040;-84
2022/10/12 00:51:16;;;;;;;6.75;4.15;;;;;;;;;;5111944;28;20077;-87
2022/10/12 00:53:47;;;;;;;5.43;3.78;;;;;;;;;;5114318;28;20030;-84
2022/10/12 00:56:17;;;;;;;5.10;3.75;;;;;;;;;;5095394;28;20384;-85
2022/10/12 00:58:45;;;;;;;10.25;4.82;;;;;;;;;;5096566;28;20077;-86
2022/10/12 01:01:11;;;;;;;8.70;4.38;;;;;;;;;;5113580;28;20114;-88
2022/10/12 01:03:36;;;;;;;4.80;3.47;;;;;;;;;;5114768;28;20156;-85
2022/10/12 01:06:02;;;;;;;4.85;3.45;;;;;;;;;;5113777;28;20043;-84
2022/10/12 01:08:29;;;;;;;7.03;4.30;;;;;;;;;;5096249;28;20050;-84
2022/10/12 01:10:54;;;;;;;5.85;3.72;;;;;;;;;;5095601;28;20060;-85
2022/10/12 01:13:20;;;;;;;7.63;3.72;;;;;;;;;;5114775;28;20445;-85
2022/10/12 01:16:15;;;;;;;5.10;3.47;;;;;;;;;;5112891;28;20027;-85
2022/10/12 01:19:17;;;;;;;4.63;3.22;;;;;;;;;;5093609;28;20035;-86
2022/10/12 01:21:50;;;;;;;6.88;4.60;;;;;;;;;;5105905;28;20040;-85
2022/10/12 01:24:43;;;;;;;7.43;4.28;;;;;;;;;;5092098;28;20046;-83
2022/10/12 01:27:44;;;;;;;8.60;4.82;;;;;;;;;;5094797;28;20020;-84
2022/10/12 01:30:34;;;;;;;5.15;4.53;;;;;;;;;;5092138;28;20332;-84
2022/10/12 01:33:19;;;;;;;;;;;;;;;;;;5114672;28;20038;-85
2022/10/12 01:36:09;;;;;;;5.13;3.92;;;;;;;;;;5095100;28;20003;-85
2022/10/12 01:38:54;;;;;;;8.07;5.05;;;;;;;;;;5111209;28;20023;-83
2022/10/12 01:41:30;;;;;;;8.20;5.55;;;;;;;;;;5092947;28;20522;-84
2022/10/12 01:43:55;;;;;;;9.40;4.72;;;;;;;;;;5107532;28;20032;-86
2022/10/12 01:46:23;;;;;;;6.18;3.70;;;;;;;;;;5112684;28;20047;-85
2022/10/12 01:48:52;;;;;;;4.30;3.22;;;;;;;;;;5094475;28;20494;-84
2022/10/12 01:51:34;;;;;;;4.57;3.67;;;;;;;;;;5091542;28;20471;-86
2022/10/12 01:54:18;;;;;;;5.80;3.13;;;;;;;;;;5094289;28;20417;-86
2022/10/12 01:57:18;;;;;;;7.43;3.22;;;;;;;;;;5112515;28;20019;-84
2022/10/12 02:00:03;;;;;;;3.30;3.03;;;;;;;;;;5110021;28;20399;-83
2022/10/12 02:02:40;;;;;;;4.88;3.28;;;;;;;;;;5093424;28;20434;-84
2022/10/12 02:05:34;;;;;;;6.18;3.40;;;;;;;;;;5110156;28;20026;-84
2022/10/12 02:08:10;;;;;;;4.38;2.47;;;;;;;;;;5041255;28;20085;-85
2022/10/12 02:10:51;;;;;;;2.95;2.22;;;;;;;;;;5110186;28;20032;-84
2022/10/12 02:13:19;;;;;;;3.85;2.92;;;;;;;;;;5110554;28;20476;-84
2022/10/12 02:15:46;;;;;;;6.63;3.72;;;;;;;;;;5094210;28;20106;-83
2022/10/12 02:18:16;;;;;;;4.05;2.17;;;;;;;;;;5094769;28;20023;-85
2022/10/12 02:20:43;;;;;;;4.70;2.35;;;;;;;;;;5092500;28;20031;-84
2022/10/12 02:23:09;;;;;;;5.40;3.67;;;;;;;;;;5094468;28;20035;-84
2022/10/12 02:25:35;;;;;;;4.63;2.95;;;;;;;;;;5094692;28;20380;-85
2022/10/12 02:28:10;;;;;;;4.07;3.28;;;;;;;;;;5111533;28;20044;-84
2022/10/12 02:30:51;;;;;;;2.40;1.70;;;;;;;;;;5095163;28;20027;-85
2022/10/12 02:33:41;;;;;;;4.95;2.78;;;;;;;;;;5093288;28;20488;-84
2022/10/12 02:36:15;;;;;;;6.30;3.20;;;;;;;;;;5094374;28;20061;-85
2022/10/12 02:39:04;;;;;;;4.57;3.35;;;;;;;;;;5093329;28;20028;-84
2022/10/12 02:41:45;;;;;;;6.70;2.80;;;;;;;;;;5093209;28;20084;-84
2022/10/12 02:44:13;;;;;;;3.20;2.47;;;;;;;;;;5113033;28;20039;-84
2022/10/12 02:46:41;;;;;;;7.00;3.35;;;;;;;;;;5112039;28;20066;-85
2022/10/12 02:49:07;;;;;;;4.75;3.58;;;;;;;;;;5093418;28;20019;-86
2022/10/12 02:51:34;;;;;;;3.33;2.97;;;;;;;;;;5112317;28;20053;-84
2022/10/12 02:54:01;;;;;;;3.70;2.70;;;;;;;;;;5093727;28;20353;-85
2022/10/12 02:56:27;;;;;;;4.65;3.80;;;;;;;;;;5112764;28;20043;-85
2022/10/12 02:58:52;;;;;;;6.20;3.30;;;;;;;;;;5112504;28;20027;-84
2022/10/12 03:01:18;;;;;;;3.78;3.00;;;;;;;;;;5112066;28;20030;-86
2022/10/12 03:03:44;;;;;;;5.15;2.63;;;;;;;;;;5092285;28;20107;-84
2022/10/12 03:06:10;;;;;;;4.63;2.90;;;;;;;;;;5094118;28;20142;-86
2022/10/12 03:08:36;;;;;;;4.43;2.63;;;;;;;;;;5094272;28;20122;-85
2022/10/12 03:11:02;;;;;;;2.50;2.30;;;;;;;;;;5092593;28;20019;-85
2022/10/12 03:13:28;;;;;;;5.55;3.17;;;;;;;;;;5112132;28;20023;-85
2022/10/12 03:16:00;;;;;;;3.47;2.85;;;;;;;;;;5111923;28;20107;-85
2022/10/12 03:18:25;;;;;;;4.82;2.65;;;;;;;;;;5109241;28;20026;-86
2022/10/12 03:20:51;;;;;;;4.88;3.28;;;;;;;;;;5109513;28;20102;-86
2022/10/12 03:23:16;;;;;;;4.32;3.05;;;;;;;;;;5111733;28;20356;-86
2022/10/12 03:25:41;;;;;;;4.90;2.72;;;;;;;;;;5112789;28;20027;-85
2022/10/12 03:28:07;;;;;;;4.82;3.60;;;;;;;;;;5094028;28;20121;-85
2022/10/12 03:30:32;;;;;;;5.38;3.78;;;;;;;;;;5111622;28;20024;-86
2022/10/12 03:32:58;;;;;;;4.55;2.80;;;;;;;;;;5108855;28;20031;-85
2022/10/12 03:35:23;;;;;;;5.05;3.05;;;;;;;;;;5109142;28;20030;-86
2022/10/12 03:37:48;;;;;;;4.60;2.70;;;;;;;;;;5089979;28;20104;-85
2022/10/12 03:40:14;;;;;;;4.40;2.67;;;;;;;;;;5110246;28;20020;-85
2022/10/12 03:42:39;;;;;;;4.18;3.13;;;;;;;;;;5110827;28;20498;-86
2022/10/12 03:45:05;;;;;;;6.57;3.17;;;;;;;;;;5110929;28;20028;-85
2022/10/12 03:47:30;;;;;;;4.63;3.22;;;;;;;;;;5112400;28;20027;-86
2022/10/12 03:49:56;;;;;;;4.78;3.30;;;;;;;;;;5093561;28;20024;-85
2022/10/12 03:52:23;;;;;;;4.35;2.97;;;;;;;;;;5111186;28;20023;-84
2022/10/12 03:54:48;;;;;;;4.68;3.22;;;;;;;;;;5091980;28;20030;-84
2022/10/12 03:57:14;;;;;;;4.30;2.38;;;;;;;;;;5091942;28;20107;-85
2022/10/12 03:59:39;;;;;;;4.97;2.65;;;;;;;;;;5111731;28;20020;-85
2022/10/12 04:02:04;;;;;;;4.40;2.40;;;;;;;;;;5093324;28;20468;-83
2022/10/12 04:04:30;;;;;;;1.92;1.80;;;;;;;;;;5110873;28;20028;-85
2022/10/12 04:06:55;;;;;;;5.30;2.58;;;;;;;;;;5110073;28;20084;-85
2022/10/12 04:09:21;;;;;;;2.45;2.22;;;;;;;;;;5108725;28;20024;-84
2022/10/12 04:11:46;;;;;;;2.67;2.38;;;;;;;;;;5093071;28;20382;-86
2022/10/12 04:14:11;;;;;;;6.40;2.72;;;;;;;;;;5111168;28;20028;-86
2022/10/12 04:16:37;;;;;;;3.75;2.65;;;;;;;;;;5108413;28;20058;-84
2022/10/12 04:19:02;;;;;;;4.15;2.47;;;;;;;;;;5109870;28;20475;-85
2022/10/12 04:21:30;;;;;;;3.00;2.03;;;;;;;;;;5108923;28;20027;-85
2022/10/12 04:23:55;;;;;;;3.60;2.15;;;;;;;;;;5108687;28;20135;-83
2022/10/12 04:26:21;;;;;;;2.22;1.77;;;;;;;;;;5094195;28;20454;-85
2022/10/12 04:28:46;;;;;;;2.75;1.65;;;;;;;;;;5112557;27;20026;-84
2022/10/12 04:31:12;;;;;;;3.42;2.03;;;;;;;;;;5093674;28;20020;-84
2022/10/12 04:33:37;;;;;;;5.25;3.08;;;;;;;;;;5111850;28;20056;-84
2022/10/12 04:36:03;;;;;;;4.63;1.70;;;;;;;;;;5094443;28;20083;-84
2022/10/12 04:38:28;;;;;;;1.85;1.63;;;;;;;;;;5093885;28;20024;-83
2022/10/12 04:40:53;;;;;;;3.72;2.72;;;;;;;;;;5095697;28;20023;-85
2022/10/12 04:43:19;;;;;;;4.07;2.67;;;;;;;;;;5109908;28;20047;-84
2022/10/12 04:45:53;;;;;;;3.65;2.55;;;;;;;;;;5094524;28;20023;-84
2022/10/12 04:48:18;;;;;;;3.00;2.05;;;;;;;;;;5113757;28;20128;-84
2022/10/12 04:50:44;;;;;;;3.78;2.00;;;;;;;;;;5113554;28;20047;-84
2022/10/12 04:53:09;;;;;;;3.47;2.40;;;;;;;;;;5094474;28;20352;-84
2022/10/12 04:55:36;;;;;;;5.30;2.33;;;;;;;;;;5094425;28;20031;-84
2022/10/12 04:58:01;;;;;;;2.17;1.95;;;;;;;;;;5111847;28;20020;-84
2022/10/12 05:00:27;;;;;;;4.78;2.25;;;;;;;;;;5114485;28;20498;-85
2022/10/12 05:02:52;;;;;;;4.10;2.20;;;;;;;;;;5111349;28;20027;-85
2022/10/12 05:05:17;;;;;;;6.72;2.90;;;;;;;;;;5095871;28;20051;-83
2022/10/12 05:07:43;;;;;;;3.30;2.28;;;;;;;;;;5113369;28;20031;-84
2022/10/12 05:10:08;;;;;;;3.95;2.38;;;;;;;;;;5114036;28;20034;-83
2022/10/12 05:12:34;;;;;;;3.95;2.63;;;;;;;;;;5112761;28;20035;-83
2022/10/12 05:14:59;;;;;;;7.53;2.55;;;;;;;;;;5090065;28;20463;-83
2022/10/12 05:17:25;;;;;;;2.70;1.90;;;;;;;;;;5091563;28;20020;-83
2022/10/12 05:19:50;;;;;;;4.10;2.70;;;;;;;;;;5107292;28;20015;-83
2022/10/12 05:22:15;;;;;;;3.28;1.80;;;;;;;;;;5109119;28;20089;-84
2022/10/12 05:24:41;;;;;;;3.35;2.20;;;;;;;;;;5091741;28;20193;-83
2022/10/12 05:27:06;;;;;;;3.75;3.20;;;;;;;;;;5112509;28;20372;-84
2022/10/12 05:29:32;;;;;;;4.70;3.25;;;;;;;;;;5090372;28;20088;-84
2022/10/12 05:31:57;;;;;;;4.35;3.55;;;;;;;;;;5108535;28;20019;-84
2022/10/12 05:34:22;;;;;;;2.72;2.15;;;;;;;;;;5094158;28;20023;-84
2022/10/12 05:36:49;;;;;;;4.68;2.80;;;;;;;;;;5111452;28;20027;-83
2022/10/12 05:39:14;;;;;;;8.10;4.07;;;;;;;;;;5093586;28;20027;-84
2022/10/12 05:41:43;;;;;;;6.18;4.32;;;;;;;;;;5091964;28;20076;-84
2022/10/12 05:44:08;;;;;;;6.88;4.07;;;;;;;;;;5093657;28;20483;-85
2022/10/12 05:46:33;;;;;;;7.05;4.55;;;;;;;;;;5113222;28;20034;-84
2022/10/12 05:48:59;;;;;;;11.73;6.18;;;;;;;;;;5093948;28;20068;-84
2022/10/12 05:51:24;;;;;;;4.28;3.55;;;;;;;;;;5093020;28;20023;-84
2022/10/12 05:53:50;;;;;;;10.05;5.30;;;;;;;;;;5094382;28;20020;-83
2022/10/12 05:56:17;;;;;;;5.35;4.10;;;;;;;;;;5111623;28;21265;-84
2022/10/12 05:58:43;;;;;;;6.55;4.75;;;;;;;;;;5114846;28;20027;-84
2022/10/12 06:01:11;;;;;;;7.60;4.55;;;;;;;;;;5093972;28;20494;-83
2022/10/12 06:03:37;;;;;;;7.75;4.18;;;;;;;;;;5093360;28;20043;-84
2022/10/12 06:06:03;;;;;;;6.35;4.68;;;;;;;;;;5111951;27;20031;-85
2022/10/12 06:08:30;;;;;;;4.18;3.22;;;;;;;;;;5111020;28;20035;-84
2022/10/12 06:10:55;;;;;;;6.78;4.18;;;;;;;;;;5112980;28;20050;-84
2022/10/12 06:13:21;;;;;;;7.13;4.97;;;;;;;;;;5111314;28;20036;-84
2022/10/12 06:15:48;;;;;;;7.05;3.90;;;;;;;;;;5111998;28;20023;-85
2022/10/12 06:18:14;;;;;;;8.32;5.28;;;;;;;;;;5112378;28;20016;-82
2022/10/12 06:20:39;;;;;;;6.95;4.88;;;;;;;;;;5088799;27;20031;-85
2022/10/12 06:23:06;;;;;;;7.45;5.07;;;;;;;;;;5092869;28;20379;-83
2022/10/12 06:25:31;;;;;;;7.25;4.07;;;;;;;;;;5092286;28;20092;-84
2022/10/12 06:27:57;;;;;;;6.85;4.70;;;;;;;;;;5092203;28;20464;-84
2022/10/12 06:30:22;;;;;;;12.85;8.18;;;;;;;;;;5093169;28;20053;-82
2022/10/12 06:32:48;;;;;;;12.48;5.75;;;;;;;;;;5091157;28;20027;-82
2022/10/12 06:35:13;;;;;;;9.90;6.63;;;;;;;;;;5094701;28;20077;-85
2022/10/12 06:37:39;;;;;;;7.50;4.80;;;;;;;;;;5109167;28;20027;-84
2022/10/12 06:40:04;;;;;;;12.30;7.07;;;;;;;;;;5111548;28;20024;-85
2022/10/12 06:42:30;;;;;;;10.07;5.45;;;;;;;;;;5111951;28;20028;-83
2022/10/12 06:44:56;;;;;;;7.15;3.90;;;;;;;;;;5093704;28;20438;-84
2022/10/12 06:47:21;;;;;;;6.93;4.13;;;;;;;;;;5093605;28;20077;-84
2022/10/12 06:49:47;;;;;;;10.25;5.85;;;;;;;;;;5093796;28;20061;-85
2022/10/12 06:52:12;;;;;;;6.88;3.88;;;;;;;;;;5094000;28;20448;-83
2022/10/12 06:54:37;;;;;;;11.35;5.35;;;;;;;;;;5112043;28;20058;-83
2022/10/12 06:57:04;;;;;;;6.90;3.75;;;;;;;;;;5111505;28;20031;-85
2022/10/12 06:59:30;;;;;;;8.70;5.32;;;;;;;;;;5112128;28;20034;-84
2022/10/12 07:01:55;;;;;;;11.27;6.00;;;;;;;;;;5093355;28;20469;-83
2022/10/12 07:04:21;;;;;;;6.38;4.55;;;;;;;;;;5092340;28;20133;-83
2022/10/12 07:06:46;;;;;;;6.88;4.55;;;;;;;;;;5092896;28;20027;-83
2022/10/12 07:09:11;;;;;;;7.80;4.85;;;;;;;;;;5109697;28;20031;-82
2022/10/12 07:11:37;;;;;;;8.02;4.95;;;;;;;;;;5094317;28;20034;-84
2022/10/12 07:14:02;;;;;;;7.55;4.97;;;;;;;;;;5094869;28;20045;-84
2022/10/12 07:16:28;;;;;;;9.75;4.53;;;;;;;;;;5109596;28;20353;-84
2022/10/12 07:18:53;;;;;;;11.02;6.47;;;;;;;;;;5093944;28;20478;-83
2022/10/12 07:21:19;;;;;;;6.30;4.82;;;;;;;;;;5093801;28;20061;-86
2022/10/12 07:23:44;;;;;;;12.70;4.25;;;;;;;;;;5110732;28;20051;-83
2022/10/12 07:26:09;;;;;;;6.40;3.65;;;;;;;;;;5090322;28;20539;-84
2022/10/12 07:28:36;;;;;;;7.22;4.15;;;;;;;;;;5091467;28;20037;-84
2022/10/12 07:31:06;;;;;;;8.93;5.05;;;;;;;;;;5092946;28;20041;-83
2022/10/12 07:33:39;;;;;;;5.30;3.53;;;;;;;;;;5094897;28;20057;-85
2022/10/12 07:36:06;;;;;;;6.75;4.38;;;;;;;;;;5110143;28;20046;-83
2022/10/12 07:38:31;;;;;;;7.43;4.97;;;;;;;;;;5093772;28;20023;-84
2022/10/12 07:41:01;;;;;;;7.82;5.03;;;;;;;;;;5112248;28;20027;-83
2022/10/12 07:43:27;;;;;;;6.97;4.63;;;;;;;;;;5106690;28;20023;-84
2022/10/12 07:45:52;;;;;;;8.32;4.30;;;;;;;;;;5094304;28;20394;-84
2022/10/12 07:48:19;;;;;;;6.07;3.45;;;;;;;;;;5093781;28;20024;-85
2022/10/12 07:50:44;;;;;;;9.75;5.35;;;;;;;;;;5110054;28;20410;-83
2022/10/12 07:53:09;;;;;;;6.10;4.43;;;;;;;;;;5110557;28;20023;-86
2022/10/12 07:55:35;;;;;;;6.05;5.18;;;;;;;;;;5112396;28;20049;-85
2022/10/12 07:58:01;;;;;;;10.07;4.80;;;;;;;;;;5111809;28;20034;-84
2022/10/12 08:00:27;;;;;;;11.05;4.40;;;;;;;;;;5113059;28;20043;-85
2022/10/12 08:02:52;;;;;;;7.03;4.13;;;;;;;;;;5096213;28;20022;-86
2022/10/12 08:05:20;;;;;;;5.68;3.75;;;;;;;;;;5116073;28;20102;-85
2022/10/12 08:07:46;;;;;;;8.82;4.43;;;;;;;;;;5096686;28;20031;-85
2022/10/12 08:10:12;;;;;;;5.28;3.75;;;;;;;;;;5097649;28;20028;-85
2022/10/12 08:12:37;;;;;;;4.40;3.08;;;;;;;;;;5114191;28;20473;-85
2022/10/12 08:15:03;;;;;;;6.22;4.32;;;;;;;;;;5096685;28;20055;-85
2022/10/12 08:17:28;;;;;;;7.05;4.20;;;;;;;;;;5113402;28;20348;-85
2022/10/12 08:19:54;;;;;;;5.15;2.25;;;;;;;;;;5096697;28;20027;-86
2022/10/12 08:22:19;;;;;;;12.57;4.25;;;;;;;;;;5096656;28;20047;-85
2022/10/12 08:24:45;;;;;;;4.63;3.53;;;;;;;;;;5088909;28;20047;-86
2022/10/12 08:27:10;;;;;;;4.15;2.88;;;;;;;;;;5091178;28;20035;-86
2022/10/12 08:29:35;;;;;;;8.38;3.63;;;;;;;;;;5088803;28;20388;-85
2022/10/12 08:32:01;;;;;;;4.53;3.30;;;;;;;;;;5093921;28;20035;-85
2022/10/12 08:34:27;;;;;;;4.95;3.05;;;;;;;;;;5090308;28;20035;-87
2022/10/12 08:36:53;;;;;;;2.78;2.30;;;;;;;;;;5091429;28;20695;-88
2022/10/12 08:39:18;;;;;;;6.13;2.08;;;;;;;;;;5090648;28;20118;-86
2022/10/12 08:42:13;;;;;;;4.28;3.13;;;;;;;;;;5092522;28;20061;-85
2022/10/12 08:44:44;;;;;;;4.45;3.17;;;;;;;;;;5091379;28;20509;-86
2022/10/12 08:47:15;;;;;;;4.22;2.42;;;;;;;;;;5091835;28;20024;-86
2022/10/12 08:49:43;;;;;;;4.10;2.47;;;;;;;;;;5092962;28;20020;-87
2022/10/12 08:52:29;;;;;;;7.95;3.47;;;;;;;;;;5090018;28;20028;-87
2022/10/12 08:54:59;;;;;;;4.50;2.55;;;;;;;;;;5093806;28;20583;-86
2022/10/12 08:57:25;;;;;;;3.20;2.60;;;;;;;;;;5093565;28;20020;-86
2022/10/12 08:59:50;;;;;;;4.35;2.97;;;;;;;;;;5094331;28;20111;-85
2022/10/12 09:02:37;;;;;;;4.72;3.45;;;;;;;;;;5093683;28;20024;-84
2022/10/12 09:05:08;;;;;;;4.80;3.42;;;;;;;;;;5091499;28;20476;-85
2022/10/12 09:07:39;;;;;;;4.15;1.92;;;;;;;;;;5093229;28;20060;-86
2022/10/12 09:10:23;;;;;;;3.30;2.40;;;;;;;;;;5094707;28;20604;-85
2022/10/12 09:13:08;;;;;;;2.92;2.33;;;;;;;;;;5090922;28;20024;-84
2022/10/12 09:16:03;;;;;;;3.45;2.25;;;;;;;;;;5091547;28;20073;-85
2022/10/12 09:18:40;;;;;;;4.05;2.25;;;;;;;;;;5090634;28;20023;-83
2022/10/12 09:21:17;;;;;;;4.35;2.20;;;;;;;;;;5090564;28;20107;-88
2022/10/12 09:23:43;;;;;;;3.38;2.47;;;;;;;;;;5091212;28;20397;-86
2022/10/12 09:26:16;;;;;;;3.35;2.53;;;;;;;;;;5092527;28;20103;-84
2022/10/12 09:28:56;;;;;;;2.67;2.08;;;;;;;;;;5090108;28;20074;-83
2022/10/12 09:31:36;;;;;;;2.85;2.63;;;;;;;;;;5090762;28;20069;-86
2022/10/12 09:34:07;;;;;;;3.10;2.35;;;;;;;;;;5088026;28;20060;-85
2022/10/12 09:36:35;;;;;;;5.28;2.47;;;;;;;;;;5091117;28;20028;-86
2022/10/12 09:39:26;;;;;;;3.47;2.60;;;;;;;;;;5091919;28;20034;-88
2022/10/12 09:41:51;;;;;;;3.33;2.53;;;;;;;;;;5093430;28;20094;-88
2022/10/12 09:44:39;;;;;;;4.00;2.17;;;;;;;;;;5092043;28;20468;-83
2022/10/12 09:47:19;;;;;;;5.70;2.90;;;;;;;;;;5089845;28;20024;-84
2022/10/12 09:49:47;;;;;;;2.22;1.85;;;;;;;;;;5086812;28;20048;-88
2022/10/12 09:52:16;;;;;;;3.50;2.50;;;;;;;;;;5090494;28;20036;-84
2022/10/12 09:54:52;;;;;;;2.60;2.27;;;;;;;;;;5088400;28;20028;-84
2022/10/12 09:57:24;;;;;;;4.43;3.00;;;;;;;;;;5092730;28;20024;-84
2022/10/12 09:59:50;;;;;;;3.92;2.72;;;;;;;;;;5091484;28;20028;-84
2022/10/12 10:02:21;;;;;;;3.28;2.42;;;;;;;;;;5093744;28;20098;-84
2022/10/12 10:04:49;;;;;;;4.22;3.65;;;;;;;;;;5092003;28;20067;-84
2022/10/12 10:07:28;;;;;;;5.25;3.50;;;;;;;;;;5094277;28;20024;-85
2022/10/12 10:10:11;;;;;;;4.05;1.83;;;;;;;;;;5093070;28;20024;-85
2022/10/12 10:12:43;;;;;;;3.38;2.22;;;;;;;;;;5092796;28;20028;-84
2022/10/12 10:15:21;;;;;;;5.00;2.72;;;;;;;;;;5093715;28;20027;-85
2022/10/12 10:17:52;;;;;;;3.08;1.88;;;;;;;;;;5092014;28;20026;-86
2022/10/12 10:20:33;;;;;;;3.50;2.30;;;;;;;;;;5090198;28;20491;-85
2022/10/12 10:22:59;;;;;;;3.15;2.47;;;;;;;;;;5092011;28;20594;-85
2022/10/12 10:25:25;;;;;;;2.65;2.15;;;;;;;;;;5093326;28;20134;-85
2022/10/12 10:28:11;;;;;;;4.18;2.25;;;;;;;;;;5094864;28;20114;-86
2022/10/12 10:30:38;;;;;;;3.53;2.03;;;;;;;;;;5086338;28;20048;-86
2022/10/12 10:33:16;;;;;;;4.60;2.83;;;;;;;;;;5090980;28;20028;-87
2022/10/12 10:36:00;;;;;;;7.32;2.17;;;;;;;;;;5091187;28;20024;-85
2022/10/12 10:38:27;;;;;;;3.22;1.98;;;;;;;;;;5090362;28;20106;-86
2022/10/12 10:40:56;;;;;;;3.13;2.30;;;;;;;;;;5090551;28;20034;-86
2022/10/12 10:43:29;;;;;;;4.47;2.80;;;;;;;;;;5091845;28;20020;-85
2022/10/12 10:46:02;;;;;;;3.78;2.13;;;;;;;;;;5092198;28;20127;-86
2022/10/12 10:49:00;;;;;;;3.13;2.45;;;;;;;;;;5091142;28;20038;-84
2022/10/12 10:51:51;;;;;;;4.82;2.45;;;;;;;;;;5095801;28;20040;-86
2022/10/12 10:54:23;;;;;;;2.38;2.17;;;;;;;;;;5091455;28;20545;-85
2022/10/12 10:56:58;;;;;;;6.65;3.28;;;;;;;;;;5093530;28;20024;-87
2022/10/12 10:59:42;;;;;;;4.78;2.33;;;;;;;;;;5091557;28;20027;-87
2022/10/12 11:02:18;;;;;;;2.60;1.85;;;;;;;;;;5092202;28;20027;-86
2022/10/12 11:04:49;;;;;;;4.57;2.65;;;;;;;;;;5090268;28;20123;-86
2022/10/12 11:07:15;;;;;;;3.15;2.08;;;;;;;;;;5090577;28;20024;-87
2022/10/12 11:09:44;;;;;;;3.30;2.20;;;;;;;;;;5088071;28;20081;-86
2022/10/12 11:12:18;;;;;;;5.30;2.17;;;;;;;;;;5089257;28;20027;-86
2022/10/12 11:14:48;;;;;;;3.97;2.33;;;;;;;;;;5090684;28;20051;-87
2022/10/12 11:17:29;;;;;;;2.22;1.55;;;;;;;;;;5085466;28;20020;-87
2022/10/12 11:20:11;;;;;;;4.60;2.55;;;;;;;;;;5090998;28;20031;-86
2022/10/12 11:23:01;;;;;;;2.40;1.85;;;;;;;;;;5088871;28;20027;-88
2022/10/12 11:25:43;;;;;;;3.60;2.67;;;;;;;;;;5085966;28;20098;-88
2022/10/12 11:28:14;;;;;;;3.78;2.47;;;;;;;;;;5089960;28;20033;-87
2022/10/12 11:30:44;;;;;;;2.15;1.70;;;;;;;;;;5091061;28;20107;-89
2022/10/12 11:33:37;;;;;;;2.92;1.92;;;;;;;;;;5107748;28;20115;-86
2022/10/12 11:36:06;;;;;;;3.45;2.00;;;;;;;;;;5094454;28;20019;-90
2022/10/12 11:39:00;;;;;;;5.82;3.17;;;;;;;;;;5093589;28;20024;-88
2022/10/12 11:41:34;;;;;;;3.60;2.17;;;;;;;;;;5086097;28;20040;-91
2022/10/12 11:44:10;;;;;;;4.50;2.65;;;;;;;;;;5092849;28;20031;-90
2022/10/12 11:46:47;;;;;;;3.67;2.60;;;;;;;;;;5094156;28;20028;-88
2022/10/12 11:49:24;;;;;;;4.43;2.78;;;;;;;;;;5095215;28;20120;-88
2022/10/12 11:51:54;;;;;;;6.65;3.42;;;;;;;;;;5093362;28;20483;-87
2022/10/12 11:54:31;;;;;;;6.03;3.53;;;;;;;;;;5095145;28;20520;-88
2022/10/12 11:57:37;;;;;;;4.10;2.60;;;;;;;;;;5099653;28;20028;-87
2022/10/12 12:00:18;;;;;;;3.70;2.10;;;;;;;;;;5091196;28;20499;-85
2022/10/12 12:02:52;;;;;;;8.60;2.78;;;;;;;;;;5092964;28;20024;-86
2022/10/12 12:05:18;;;;;;;3.30;2.47;;;;;;;;;;5092888;28;20024;-90
2022/10/12 12:07:44;;;;;;;4.15;2.95;;;;;;;;;;5095543;28;20506;-89
2022/10/12 12:10:26;;;;;;;3.25;2.53;;;;;;;;;;5094250;28;20365;-89
2022/10/12 12:13:11;;;;;;;3.33;2.40;;;;;;;;;;5093990;28;20020;-87
2022/10/12 12:15:45;;;;;;;4.30;2.30;;;;;;;;;;5094158;28;20034;-90
2022/10/12 12:18:23;;;;;;;3.08;2.05;;;;;;;;;;5093140;28;20035;-89
2022/10/12 12:20:48;;;;;;;3.13;2.25;;;;;;;;;;5094398;28;20024;-90
2022/10/12 12:23:30;;;;;;;3.80;2.17;;;;;;;;;;5096834;28;20499;-89
2022/10/12 12:26:17;;;;;;;4.93;2.40;;;;;;;;;;5094746;28;20126;-88
2022/10/12 12:28:45;;;;;;;5.45;2.80;;;;;;;;;;5095735;28;20028;-88
2022/10/12 12:31:22;;;;;;;2.63;1.65;;;;;;;;;;5112738;28;20023;-89
2022/10/12 12:33:59;;;;;;;5.30;2.50;;;;;;;;;;5115230;28;20032;-89
2022/10/12 12:36:37;;;;;;;3.80;2.13;;;;;;;;;;5115667;27;20027;-89
2022/10/12 12:39:05;;;;;;;3.60;2.60;;;;;;;;;;5096511;28;20032;-89
2022/10/12 12:41:51;;;;;;;2.90;2.20;;;;;;;;;;5114986;27;20027;-89
2022/10/12 12:44:40;;;;;;;4.85;2.15;;;;;;;;;;5092771;28;20028;-89
2022/10/12 12:47:06;;;;;;;;;;;;;;;;;;5113677;28;20028;-88
2022/10/12 12:49:40;;;;;;;3.83;1.90;;;;;;;;;;5112986;28;19911;-90
2022/10/12 12:52:27;;;;;;;3.47;1.88;;;;;;;;;;5114952;28;20404;-90
2022/10/12 12:55:17;;;;;;;3.22;2.25;;;;;;;;;;5113096;28;20031;-88
2022/10/12 12:58:04;;;;;;;3.88;2.50;;;;;;;;;;5092319;28;20062;-90
2022/10/12 13:00:44;;;;;;;3.95;2.38;;;;;;;;;;5112797;28;20491;-89
2022/10/12 13:03:30;;;;;;;;;;;;;;;;;;5111858;28;20026;-90
2022/10/12 13:06:01;;;;;;;2.60;1.80;;;;;;;;;;5091471;28;19918;-88
2022/10/12 13:08:54;;;;;;;5.70;2.85;;;;;;;;;;5112731;28;20108;-88
2022/10/12 13:11:22;;;;;;;3.97;2.53;;;;;;;;;;5111279;28;20024;-88
2022/10/12 13:14:07;;;;;;;3.70;2.72;;;;;;;;;;5096798;28;20125;-89
2022/10/12 13:16:55;;;;;;;4.97;2.72;;;;;;;;;;5094246;28;20030;-88
2022/10/12 13:19:21;;;;;;;3.83;2.58;;;;;;;;;;5112839;28;20038;-87
2022/10/12 13:21:50;;;;;;;3.90;2.22;;;;;;;;;;5097203;28;20031;-87
2022/10/12 13:24:21;;;;;;;4.95;2.90;;;;;;;;;;5114725;28;20047;-88
2022/10/12 13:26:51;;;;;;;4.07;2.67;;;;;;;;;;5113997;28;20028;-88
2022/10/12 13:29:38;;;;;;;4.25;2.45;;;;;;;;;;5113796;28;20107;-88
2022/10/12 13:32:09;;;;;;;3.25;2.55;;;;;;;;;;5113708;28;20035;-90
2022/10/12 13:34:42;;;;;;;4.47;2.40;;;;;;;;;;5094162;28;20077;-88
2022/10/12 13:37:12;;;;;;;4.07;2.60;;;;;;;;;;5114519;28;20371;-89
2022/10/12 13:39:45;;;;;;;3.83;2.30;;;;;;;;;;5094342;28;20382;-89
2022/10/12 13:42:15;;;;;;;4.60;2.42;;;;;;;;;;5114450;28;20031;-88
2022/10/12 13:44:41;;;;;;;;;;;;;;;;;;5115501;28;20058;-88
2022/10/12 13:47:40;;;;;;;4.20;2.83;;;;;;;;;;5096338;28;19919;-89
2022/10/12 13:50:19;;;;;;;4.18;2.65;;;;;;;;;;5058639;28;20035;-85
2022/10/12 13:52:53;;;;;;;4.60;2.47;;;;;;;;;;5112788;28;20102;-90
2022/10/12 13:55:25;;;;;;;4.07;2.83;;;;;;;;;;5113761;28;20023;-88
2022/10/12 13:57:53;;;;;;;5.00;2.45;;;;;;;;;;5095613;28;20027;-89
2022/10/12 14:00:24;;;;;;;6.15;2.47;;;;;;;;;;5097175;28;20027;-90
2022/10/12 14:02:56;;;;;;;4.15;2.63;;;;;;;;;;5097500;28;20399;-87
2022/10/12 14:05:25;;;;;;;9.18;3.28;;;;;;;;;;5097579;28;20106;-89
2022/10/12 14:07:52;;;;;;;4.40;2.70;;;;;;;;;;5115164;28;20483;-87
2022/10/12 14:10:25;;;;;;;4.78;2.90;;;;;;;;;;5098105;28;20027;-89
2022/10/12 14:12:52;;;;;;;2.78;2.10;;;;;;;;;;5096928;28;20035;-88
2022/10/12 14:15:20;;;;;;;3.45;2.53;;;;;;;;;;5096583;28;20019;-89
2022/10/12 14:17:49;;;;;;;5.63;2.60;;;;;;;;;;5112556;28;20051;-88
2022/10/12 14:20:36;;;;;;;4.90;3.15;;;;;;;;;;5115872;28;20080;-88
2022/10/12 14:23:03;;;;;;;3.45;2.28;;;;;;;;;;5114667;28;20043;-89
2022/10/12 14:25:32;;;;;;;3.28;2.10;;;;;;;;;;5114653;28;20039;-89
2022/10/12 14:28:00;;;;;;;5.25;3.67;;;;;;;;;;5115339;28;20023;-88
2022/10/12 14:30:35;;;;;;;3.70;2.53;;;;;;;;;;5096466;28;20019;-88
2022/10/12 14:33:19;;;;;;;4.78;3.08;;;;;;;;;;5095983;28;20031;-88
2022/10/12 14:35:47;;;;;;;4.47;2.72;;;;;;;;;;5096750;28;20036;-89
2022/10/12 14:38:38;;;;;;;2.55;1.92;;;;;;;;;;5114983;28;20026;-89
2022/10/12 14:41:33;;;;;;;5.25;3.10;;;;;;;;;;5113987;28;20026;-89
2022/10/12 14:44:08;;;;;;;7.57;2.58;;;;;;;;;;5096976;28;20485;-88
2022/10/12 14:46:38;;;;;;;5.32;3.33;;;;;;;;;;5115376;28;20038;-89
2022/10/12 14:49:04;;;;;;;4.95;3.58;;;;;;;;;;5095934;28;20161;-89
2022/10/12 14:51:30;;;;;;;7.25;3.33;;;;;;;;;;5115179;28;20050;-91
2022/10/12 14:54:00;;;;;;;14.30;3.78;;;;;;;;;;5114359;28;20019;-89
2022/10/12 14:56:25;;;;;;;3.65;2.65;;;;;;;;;;5096347;28;20019;-88
2022/10/12 14:58:51;;;;;;;3.00;2.70;;;;;;;;;;5094454;28;20057;-89
2022/10/12 15:01:17;;;;;;;5.68;3.67;;;;;;;;;;5095109;28;20080;-89
2022/10/12 15:03:42;;;;;;;5.43;3.33;;;;;;;;;;5096742;28;20497;-90
2022/10/12 15:06:13;;;;;;;4.78;3.53;;;;;;;;;;5114162;28;20059;-88
2022/10/12 15:08:39;;;;;;;4.13;2.33;;;;;;;;;;5114799;28;20104;-89